Aeroporto :
LOGIN :

Iscrizione | Disclaimer

   EN    FR    IT 

 










Sommario :    VFR   VFR Marginale   IFR   IFR Intensivo   IFR Molto Intensivo
Visibilità : 
Base nubi : 
>= 8 km
>= 3000ft
5 / 8 km
1000 / 3000 ft
1500m / 5 km
500 / 1000 ft
800 / 1500m
200 / 500 ft
< 800m
< 200 ft
Simboli :   Temporali  Nebbia  Neve Forte  Precipitazioni Forti  Vento > 20 kt
SIGMETs :   Varie  Temporali  Ghiacco  Turbolenza  Onda orograficha  Ceneri Vulcaniche






- Altitudine del aeroporto : 257 ft
- Codice IATA : MAN


EGCC - Manchester

ULTIMO METAR :
  • 170950Z VRB03KT 9999 6000SW VCSH FEW015 BKN032 07/07 Q1012 NOSIG

METARs OBSOLETI :
  • 170920Z VRB01KT 4000 -RA FEW004 BKN032 06/06 Q1011 RERA TEMPO RA
  • 170850Z AUTO VRB01KT 3700 RA FEW008 SCT030 BKN039 06/05 Q1011 BECMG -RA
  • 170820Z VRB01KT 2500 VCFG BR FEW000 BKN030 06/06 Q1011 NOSIG
  • 170750Z VRB01KT 1200 0600SE R23R/0400 BCFG BR FEW001 SCT020 BKN030 05/04 Q1010
  • 170720Z 12001KT 1200 0800NE R23R/0500 PRFG BR FEW002 SCT032 04/04 Q1010 NOSIG

TAF AMD TAF EGCC
Valido dal 17 a 08 ore il 18 a 12 ore UTC


170819Z 1708/1812 VRB03KT 3000 -RA BR FEW003 BKN030
TEMPO 1708/1712 RADZ BKN003
BECMG 1712/1715 35010KT 8000 NSW
PROB30
TEMPO 1715/1718 4000 RA BKN010
ATIS : +44 161 499 2324



MetMap, La meteo Aeronautica in un colpo d'occhio ! - Copyright ORBIFLY Dicembre 2007 - Disclaimer

ORBIFLY MET'MAP TEAM :

Programmazione e sviluppo : Alexandra Zaïnal
Concezione e sviluppo : Baudouin d'Aumeries
Co-Programmazione e sviluppo : Marc-Olivier Méhu
Supporto tecnico e logistico : Manuel Goepfert
Aiuto per la traduzione : Arnaldo La Scala

Contatto : metmap@orbifly.com




FONTI E CREDITI :

   NOAA